sensor_id;sensor_type;location;lat;lon;timestamp;temperature;humidity
39655;DHT22;25336;59.944;11.010;2023-04-24T00:00:04;8.20;72.50
39655;DHT22;25336;59.944;11.010;2023-04-24T00:02:36;7.50;72.50
39655;DHT22;25336;59.944;11.010;2023-04-24T00:05:04;7.50;72.50
39655;DHT22;25336;59.944;11.010;2023-04-24T00:07:30;7.40;72.40
39655;DHT22;25336;59.944;11.010;2023-04-24T00:09:56;7.40;72.60
39655;DHT22;25336;59.944;11.010;2023-04-24T00:12:22;7.40;72.20
39655;DHT22;25336;59.944;11.010;2023-04-24T00:14:47;6.90;71.80
39655;DHT22;25336;59.944;11.010;2023-04-24T00:17:14;7.30;72.30
39655;DHT22;25336;59.944;11.010;2023-04-24T00:19:39;7.30;72.30
39655;DHT22;25336;59.944;11.010;2023-04-24T00:22:05;7.30;72.40
39655;DHT22;25336;59.944;11.010;2023-04-24T00:24:31;7.40;72.60
39655;DHT22;25336;59.944;11.010;2023-04-24T00:26:57;7.20;72.50
39655;DHT22;25336;59.944;11.010;2023-04-24T00:29:22;7.30;72.70
39655;DHT22;25336;59.944;11.010;2023-04-24T00:31:48;7.20;72.60
39655;DHT22;25336;59.944;11.010;2023-04-24T00:34:14;7.20;72.70
39655;DHT22;25336;59.944;11.010;2023-04-24T00:36:39;7.10;72.80
39655;DHT22;25336;59.944;11.010;2023-04-24T00:39:05;7.10;72.80
39655;DHT22;25336;59.944;11.010;2023-04-24T00:41:34;7.10;73.00
39655;DHT22;25336;59.944;11.010;2023-04-24T00:44:02;7.10;73.00
39655;DHT22;25336;59.944;11.010;2023-04-24T00:46:28;7.40;73.20
39655;DHT22;25336;59.944;11.010;2023-04-24T00:48:54;7.00;73.00
39655;DHT22;25336;59.944;11.010;2023-04-24T00:51:21;7.10;73.10
39655;DHT22;25336;59.944;11.010;2023-04-24T00:53:46;7.00;73.00
39655;DHT22;25336;59.944;11.010;2023-04-24T00:56:12;7.00;73.10
39655;DHT22;25336;59.944;11.010;2023-04-24T00:58:38;7.00;73.30
39655;DHT22;25336;59.944;11.010;2023-04-24T01:01:06;7.00;73.30
39655;DHT22;25336;59.944;11.010;2023-04-24T01:03:33;7.00;73.00
39655;DHT22;25336;59.944;11.010;2023-04-24T01:05:59;7.00;72.80
39655;DHT22;25336;59.944;11.010;2023-04-24T01:08:26;7.00;72.90
39655;DHT22;25336;59.944;11.010;2023-04-24T01:10:54;7.00;72.70
39655;DHT22;25336;59.944;11.010;2023-04-24T01:13:20;7.00;72.90
39655;DHT22;25336;59.944;11.010;2023-04-24T01:15:46;7.00;72.90
39655;DHT22;25336;59.944;11.010;2023-04-24T01:18:13;6.90;73.00
39655;DHT22;25336;59.944;11.010;2023-04-24T01:20:43;6.90;73.20
39655;DHT22;25336;59.944;11.010;2023-04-24T01:23:10;6.90;73.20
39655;DHT22;25336;59.944;11.010;2023-04-24T01:25:37;6.90;73.20
39655;DHT22;25336;59.944;11.010;2023-04-24T01:28:03;6.90;73.10
39655;DHT22;25336;59.944;11.010;2023-04-24T01:30:29;6.90;73.10
39655;DHT22;25336;59.944;11.010;2023-04-24T01:32:55;6.90;73.20
39655;DHT22;25336;59.944;11.010;2023-04-24T01:35:21;6.90;73.20
39655;DHT22;25336;59.944;11.010;2023-04-24T01:37:47;8.00;73.90
39655;DHT22;25336;59.944;11.010;2023-04-24T01:40:12;6.90;73.30
39655;DHT22;25336;59.944;11.010;2023-04-24T01:42:38;6.80;73.10
39655;DHT22;25336;59.944;11.010;2023-04-24T01:45:06;6.80;73.10
39655;DHT22;25336;59.944;11.010;2023-04-24T01:47:34;6.80;73.40
39655;DHT22;25336;59.944;11.010;2023-04-24T01:50:00;6.80;73.40
39655;DHT22;25336;59.944;11.010;2023-04-24T01:52:26;6.80;73.50
39655;DHT22;25336;59.944;11.010;2023-04-24T01:54:52;6.70;73.40
39655;DHT22;25336;59.944;11.010;2023-04-24T01:57:18;6.70;73.60
39655;DHT22;25336;59.944;11.010;2023-04-24T01:59:43;6.70;73.90
39655;DHT22;25336;59.944;11.010;2023-04-24T02:02:09;6.70;74.10
39655;DHT22;25336;59.944;11.010;2023-04-24T02:04:35;6.70;74.00
39655;DHT22;25336;59.944;11.010;2023-04-24T02:07:00;7.80;74.50
39655;DHT22;25336;59.944;11.010;2023-04-24T02:09:26;6.70;73.70
39655;DHT22;25336;59.944;11.010;2023-04-24T02:11:51;6.70;73.50
39655;DHT22;25336;59.944;11.010;2023-04-24T02:14:17;6.90;74.30
39655;DHT22;25336;59.944;11.010;2023-04-24T02:16:43;7.40;74.50
39655;DHT22;25336;59.944;11.010;2023-04-24T02:19:09;6.60;73.70
39655;DHT22;25336;59.944;11.010;2023-04-24T02:21:35;6.70;74.20
39655;DHT22;25336;59.944;11.010;2023-04-24T02:24:00;6.70;73.90
39655;DHT22;25336;59.944;11.010;2023-04-24T02:26:26;6.60;74.00
39655;DHT22;25336;59.944;11.010;2023-04-24T02:28:52;6.60;73.90
39655;DHT22;25336;59.944;11.010;2023-04-24T02:31:17;6.60;74.00
39655;DHT22;25336;59.944;11.010;2023-04-24T02:33:43;6.60;74.50
39655;DHT22;25336;59.944;11.010;2023-04-24T02:36:09;6.60;74.40
39655;DHT22;25336;59.944;11.010;2023-04-24T02:38:34;6.60;74.40
39655;DHT22;25336;59.944;11.010;2023-04-24T02:41:00;7.60;74.90
39655;DHT22;25336;59.944;11.010;2023-04-24T02:43:27;7.30;75.00
39655;DHT22;25336;59.944;11.010;2023-04-24T02:45:53;6.50;74.40
39655;DHT22;25336;59.944;11.010;2023-04-24T02:48:19;6.50;74.40
39655;DHT22;25336;59.944;11.010;2023-04-24T02:50:46;6.50;74.50
39655;DHT22;25336;59.944;11.010;2023-04-24T02:53:11;6.50;74.20
39655;DHT22;25336;59.944;11.010;2023-04-24T02:55:37;6.50;74.60
39655;DHT22;25336;59.944;11.010;2023-04-24T02:58:03;7.20;75.10
39655;DHT22;25336;59.944;11.010;2023-04-24T03:00:29;6.40;74.40
39655;DHT22;25336;59.944;11.010;2023-04-24T03:02:55;6.40;74.50
39655;DHT22;25336;59.944;11.010;2023-04-24T03:05:20;6.60;74.30
39655;DHT22;25336;59.944;11.010;2023-04-24T03:07:46;6.40;74.70
39655;DHT22;25336;59.944;11.010;2023-04-24T03:10:12;7.20;75.10
39655;DHT22;25336;59.944;11.010;2023-04-24T03:12:38;6.40;74.80
39655;DHT22;25336;59.944;11.010;2023-04-24T03:15:03;6.80;75.20
39655;DHT22;25336;59.944;11.010;2023-04-24T03:17:29;6.40;75.10
39655;DHT22;25336;59.944;11.010;2023-04-24T03:19:55;6.30;75.10
39655;DHT22;25336;59.944;11.010;2023-04-24T03:22:21;6.30;74.70
39655;DHT22;25336;59.944;11.010;2023-04-24T03:24:46;6.30;74.90
39655;DHT22;25336;59.944;11.010;2023-04-24T03:27:12;5.90;74.70
39655;DHT22;25336;59.944;11.010;2023-04-24T03:29:37;6.30;74.80
39655;DHT22;25336;59.944;11.010;2023-04-24T03:32:03;6.30;74.90
39655;DHT22;25336;59.944;11.010;2023-04-24T03:34:29;6.80;75.40
39655;DHT22;25336;59.944;11.010;2023-04-24T03:36:55;6.30;74.90
39655;DHT22;25336;59.944;11.010;2023-04-24T03:39:20;7.10;75.70
39655;DHT22;25336;59.944;11.010;2023-04-24T03:41:46;6.30;74.70
39655;DHT22;25336;59.944;11.010;2023-04-24T03:44:11;6.30;74.90
39655;DHT22;25336;59.944;11.010;2023-04-24T03:46:37;6.80;75.20
39655;DHT22;25336;59.944;11.010;2023-04-24T03:49:03;7.40;76.00
39655;DHT22;25336;59.944;11.010;2023-04-24T03:51:28;6.30;75.30
39655;DHT22;25336;59.944;11.010;2023-04-24T03:53:55;6.30;74.90
39655;DHT22;25336;59.944;11.010;2023-04-24T03:56:21;6.30;75.00
39655;DHT22;25336;59.944;11.010;2023-04-24T03:58:46;6.30;74.90
39655;DHT22;25336;59.944;11.010;2023-04-24T04:01:12;6.30;74.90
39655;DHT22;25336;59.944;11.010;2023-04-24T04:03:38;7.30;75.50
39655;DHT22;25336;59.944;11.010;2023-04-24T04:06:04;6.60;75.20
39655;DHT22;25336;59.944;11.010;2023-04-24T04:08:30;6.20;75.20
39655;DHT22;25336;59.944;11.010;2023-04-24T04:10:55;6.20;75.00
39655;DHT22;25336;59.944;11.010;2023-04-24T04:13:21;6.20;74.80
39655;DHT22;25336;59.944;11.010;2023-04-24T04:15:47;6.10;75.00
39655;DHT22;25336;59.944;11.010;2023-04-24T04:18:12;6.10;75.20
39655;DHT22;25336;59.944;11.010;2023-04-24T04:20:38;6.10;75.40
39655;DHT22;25336;59.944;11.010;2023-04-24T04:23:04;6.20;75.20
39655;DHT22;25336;59.944;11.010;2023-04-24T04:25:29;7.10;75.90
39655;DHT22;25336;59.944;11.010;2023-04-24T04:27:55;6.30;75.60
39655;DHT22;25336;59.944;11.010;2023-04-24T04:30:20;6.10;75.20
39655;DHT22;25336;59.944;11.010;2023-04-24T04:32:47;6.10;74.90
39655;DHT22;25336;59.944;11.010;2023-04-24T04:35:12;6.10;75.10
39655;DHT22;25336;59.944;11.010;2023-04-24T04:37:38;6.00;75.50
39655;DHT22;25336;59.944;11.010;2023-04-24T04:40:05;6.00;75.20
39655;DHT22;25336;59.944;11.010;2023-04-24T04:42:32;6.00;75.60
39655;DHT22;25336;59.944;11.010;2023-04-24T04:45:00;7.00;76.10
39655;DHT22;25336;59.944;11.010;2023-04-24T04:47:26;6.00;75.60
39655;DHT22;25336;59.944;11.010;2023-04-24T04:49:55;6.00;75.30
39655;DHT22;25336;59.944;11.010;2023-04-24T04:52:21;6.60;76.30
39655;DHT22;25336;59.944;11.010;2023-04-24T04:54:51;6.00;75.10
39655;DHT22;25336;59.944;11.010;2023-04-24T04:57:17;6.30;75.80
39655;DHT22;25336;59.944;11.010;2023-04-24T04:59:42;5.90;75.70
39655;DHT22;25336;59.944;11.010;2023-04-24T05:02:08;7.20;76.50
39655;DHT22;25336;59.944;11.010;2023-04-24T05:04:34;6.30;75.70
39655;DHT22;25336;59.944;11.010;2023-04-24T05:07:00;5.90;75.30
39655;DHT22;25336;59.944;11.010;2023-04-24T05:09:25;5.90;75.30
39655;DHT22;25336;59.944;11.010;2023-04-24T05:11:52;5.90;75.60
39655;DHT22;25336;59.944;11.010;2023-04-24T05:14:18;6.50;75.50
39655;DHT22;25336;59.944;11.010;2023-04-24T05:16:45;6.20;75.50
39655;DHT22;25336;59.944;11.010;2023-04-24T05:19:11;5.80;75.70
39655;DHT22;25336;59.944;11.010;2023-04-24T05:21:37;5.80;75.60
39655;DHT22;25336;59.944;11.010;2023-04-24T05:24:05;5.80;75.40
39655;DHT22;25336;59.944;11.010;2023-04-24T05:26:30;5.80;75.30
39655;DHT22;25336;59.944;11.010;2023-04-24T05:28:56;5.80;75.40
39655;DHT22;25336;59.944;11.010;2023-04-24T05:31:22;5.70;75.50
39655;DHT22;25336;59.944;11.010;2023-04-24T05:33:47;5.70;74.90
39655;DHT22;25336;59.944;11.010;2023-04-24T05:36:13;5.70;75.10
39655;DHT22;25336;59.944;11.010;2023-04-24T05:38:39;5.70;75.00
39655;DHT22;25336;59.944;11.010;2023-04-24T05:41:05;5.70;74.80
39655;DHT22;25336;59.944;11.010;2023-04-24T05:43:31;5.80;74.90
39655;DHT22;25336;59.944;11.010;2023-04-24T05:45:57;5.70;74.90
39655;DHT22;25336;59.944;11.010;2023-04-24T05:48:23;6.50;75.60
39655;DHT22;25336;59.944;11.010;2023-04-24T05:50:49;6.30;75.50
39655;DHT22;25336;59.944;11.010;2023-04-24T05:53:14;5.50;75.40
39655;DHT22;25336;59.944;11.010;2023-04-24T05:55:40;5.50;75.10
39655;DHT22;25336;59.944;11.010;2023-04-24T05:58:06;6.50;75.90
39655;DHT22;25336;59.944;11.010;2023-04-24T06:00:32;5.50;75.50
39655;DHT22;25336;59.944;11.010;2023-04-24T06:02:59;5.40;75.70
39655;DHT22;25336;59.944;11.010;2023-04-24T06:05:25;5.40;75.50
39655;DHT22;25336;59.944;11.010;2023-04-24T06:07:51;5.40;75.50
39655;DHT22;25336;59.944;11.010;2023-04-24T06:10:17;5.40;75.30
39655;DHT22;25336;59.944;11.010;2023-04-24T06:12:43;5.40;75.70
39655;DHT22;25336;59.944;11.010;2023-04-24T06:15:09;5.40;75.40
39655;DHT22;25336;59.944;11.010;2023-04-24T06:17:34;5.30;75.60
39655;DHT22;25336;59.944;11.010;2023-04-24T06:20:00;6.20;76.20
39655;DHT22;25336;59.944;11.010;2023-04-24T06:22:26;6.10;76.10
39655;DHT22;25336;59.944;11.010;2023-04-24T06:24:51;5.30;75.60
39655;DHT22;25336;59.944;11.010;2023-04-24T06:27:17;5.40;75.70
39655;DHT22;25336;59.944;11.010;2023-04-24T06:29:43;5.40;75.70
39655;DHT22;25336;59.944;11.010;2023-04-24T06:32:08;5.30;75.80
39655;DHT22;25336;59.944;11.010;2023-04-24T06:34:34;5.40;75.90
39655;DHT22;25336;59.944;11.010;2023-04-24T06:37:00;5.30;76.00
39655;DHT22;25336;59.944;11.010;2023-04-24T06:39:26;5.40;76.00
39655;DHT22;25336;59.944;11.010;2023-04-24T06:41:52;5.40;76.10
39655;DHT22;25336;59.944;11.010;2023-04-24T06:44:17;5.30;76.10
39655;DHT22;25336;59.944;11.010;2023-04-24T06:46:43;5.50;75.80
39655;DHT22;25336;59.944;11.010;2023-04-24T06:49:09;6.50;76.50
39655;DHT22;25336;59.944;11.010;2023-04-24T06:51:35;4.60;75.10
39655;DHT22;25336;59.944;11.010;2023-04-24T06:54:00;5.40;75.80
39655;DHT22;25336;59.944;11.010;2023-04-24T06:56:27;5.40;75.90
39655;DHT22;25336;59.944;11.010;2023-04-24T06:58:54;5.40;75.80
39655;DHT22;25336;59.944;11.010;2023-04-24T07:01:20;5.30;75.80
39655;DHT22;25336;59.944;11.010;2023-04-24T07:03:45;5.40;75.60
39655;DHT22;25336;59.944;11.010;2023-04-24T07:06:11;5.30;75.60
39655;DHT22;25336;59.944;11.010;2023-04-24T07:08:37;5.40;75.70
39655;DHT22;25336;59.944;11.010;2023-04-24T07:11:03;5.40;75.80
39655;DHT22;25336;59.944;11.010;2023-04-24T07:13:29;5.50;75.70
39655;DHT22;25336;59.944;11.010;2023-04-24T07:15:55;5.30;75.60
39655;DHT22;25336;59.944;11.010;2023-04-24T07:18:21;5.30;75.60
39655;DHT22;25336;59.944;11.010;2023-04-24T07:20:47;5.30;75.60
39655;DHT22;25336;59.944;11.010;2023-04-24T07:23:15;6.20;76.20
39655;DHT22;25336;59.944;11.010;2023-04-24T07:25:41;5.30;76.10
39655;DHT22;25336;59.944;11.010;2023-04-24T07:28:06;5.30;75.90
39655;DHT22;25336;59.944;11.010;2023-04-24T07:30:32;5.40;76.00
39655;DHT22;25336;59.944;11.010;2023-04-24T07:32:58;5.30;76.20
39655;DHT22;25336;59.944;11.010;2023-04-24T07:35:24;5.30;76.00
39655;DHT22;25336;59.944;11.010;2023-04-24T07:37:53;5.30;76.20
39655;DHT22;25336;59.944;11.010;2023-04-24T07:40:20;5.30;76.00
39655;DHT22;25336;59.944;11.010;2023-04-24T07:42:45;5.50;76.40
39655;DHT22;25336;59.944;11.010;2023-04-24T07:45:14;5.30;76.20
39655;DHT22;25336;59.944;11.010;2023-04-24T07:47:41;5.30;76.30
39655;DHT22;25336;59.944;11.010;2023-04-24T07:50:09;5.40;76.80
39655;DHT22;25336;59.944;11.010;2023-04-24T07:52:35;5.40;76.70
39655;DHT22;25336;59.944;11.010;2023-04-24T07:55:01;5.40;76.40
39655;DHT22;25336;59.944;11.010;2023-04-24T07:57:28;5.40;76.40
39655;DHT22;25336;59.944;11.010;2023-04-24T07:59:54;5.40;76.20
39655;DHT22;25336;59.944;11.010;2023-04-24T08:02:20;5.40;76.40
39655;DHT22;25336;59.944;11.010;2023-04-24T08:04:47;5.40;76.50
39655;DHT22;25336;59.944;11.010;2023-04-24T08:07:12;5.60;77.60
39655;DHT22;25336;59.944;11.010;2023-04-24T08:09:38;5.40;76.30
39655;DHT22;25336;59.944;11.010;2023-04-24T08:12:04;5.40;76.10
39655;DHT22;25336;59.944;11.010;2023-04-24T08:14:29;5.50;76.80
39655;DHT22;25336;59.944;11.010;2023-04-24T08:16:55;5.40;76.30
39655;DHT22;25336;59.944;11.010;2023-04-24T08:19:25;5.50;76.40
39655;DHT22;25336;59.944;11.010;2023-04-24T08:21:51;5.50;76.50
39655;DHT22;25336;59.944;11.010;2023-04-24T08:24:16;5.50;76.70
39655;DHT22;25336;59.944;11.010;2023-04-24T08:26:42;5.50;76.40
39655;DHT22;25336;59.944;11.010;2023-04-24T08:29:09;5.50;76.40
39655;DHT22;25336;59.944;11.010;2023-04-24T08:31:34;5.50;76.40
39655;DHT22;25336;59.944;11.010;2023-04-24T08:34:01;5.60;76.80
39655;DHT22;25336;59.944;11.010;2023-04-24T08:36:26;5.60;76.60
39655;DHT22;25336;59.944;11.010;2023-04-24T08:38:52;5.60;76.30
39655;DHT22;25336;59.944;11.010;2023-04-24T08:41:18;5.00;75.80
39655;DHT22;25336;59.944;11.010;2023-04-24T08:43:46;5.60;76.10
39655;DHT22;25336;59.944;11.010;2023-04-24T08:46:13;5.60;76.10
39655;DHT22;25336;59.944;11.010;2023-04-24T08:48:39;5.60;76.20
39655;DHT22;25336;59.944;11.010;2023-04-24T08:51:07;5.60;76.30
39655;DHT22;25336;59.944;11.010;2023-04-24T08:53:35;5.70;76.30
39655;DHT22;25336;59.944;11.010;2023-04-24T08:56:01;5.60;76.00
39655;DHT22;25336;59.944;11.010;2023-04-24T08:58:28;5.70;76.20
39655;DHT22;25336;59.944;11.010;2023-04-24T09:00:57;6.30;76.90
39655;DHT22;25336;59.944;11.010;2023-04-24T09:03:23;5.70;76.20
39655;DHT22;25336;59.944;11.010;2023-04-24T09:05:50;5.70;76.00
39655;DHT22;25336;59.944;11.010;2023-04-24T09:08:19;5.70;76.10
39655;DHT22;25336;59.944;11.010;2023-04-24T09:10:45;5.70;76.30
39655;DHT22;25336;59.944;11.010;2023-04-24T09:13:11;5.70;76.60
39655;DHT22;25336;59.944;11.010;2023-04-24T09:15:38;5.70;76.30
39655;DHT22;25336;59.944;11.010;2023-04-24T09:18:04;5.80;76.40
39655;DHT22;25336;59.944;11.010;2023-04-24T09:20:30;5.80;76.40
39655;DHT22;25336;59.944;11.010;2023-04-24T09:22:59;5.80;76.20
39655;DHT22;25336;59.944;11.010;2023-04-24T09:25:31;6.60;77.20
39655;DHT22;25336;59.944;11.010;2023-04-24T09:28:03;5.80;76.40
39655;DHT22;25336;59.944;11.010;2023-04-24T09:30:29;5.80;76.50
39655;DHT22;25336;59.944;11.010;2023-04-24T09:33:14;5.80;76.50
39655;DHT22;25336;59.944;11.010;2023-04-24T09:35:42;5.80;76.70
39655;DHT22;25336;59.944;11.010;2023-04-24T09:38:11;5.80;76.50
39655;DHT22;25336;59.944;11.010;2023-04-24T09:40:36;5.80;76.20
39655;DHT22;25336;59.944;11.010;2023-04-24T09:43:02;5.80;75.90
39655;DHT22;25336;59.944;11.010;2023-04-24T09:45:40;5.80;75.90
39655;DHT22;25336;59.944;11.010;2023-04-24T09:48:09;5.80;76.00
39655;DHT22;25336;59.944;11.010;2023-04-24T09:50:35;5.80;75.80
39655;DHT22;25336;59.944;11.010;2023-04-24T09:53:05;5.40;75.80
39655;DHT22;25336;59.944;11.010;2023-04-24T09:55:39;5.80;75.80
39655;DHT22;25336;59.944;11.010;2023-04-24T09:58:04;5.80;76.30
39655;DHT22;25336;59.944;11.010;2023-04-24T10:00:32;6.40;76.70
39655;DHT22;25336;59.944;11.010;2023-04-24T10:03:03;5.80;76.20
39655;DHT22;25336;59.944;11.010;2023-04-24T10:05:34;5.80;76.20
39655;DHT22;25336;59.944;11.010;2023-04-24T10:08:02;5.70;76.30
39655;DHT22;25336;59.944;11.010;2023-04-24T10:10:29;5.70;76.60
39655;DHT22;25336;59.944;11.010;2023-04-24T10:12:55;5.80;76.70
39655;DHT22;25336;59.944;11.010;2023-04-24T10:15:21;6.10;77.00
39655;DHT22;25336;59.944;11.010;2023-04-24T10:17:51;5.80;76.80
39655;DHT22;25336;59.944;11.010;2023-04-24T10:20:21;5.80;76.70
39655;DHT22;25336;59.944;11.010;2023-04-24T10:22:49;6.30;76.50
39655;DHT22;25336;59.944;11.010;2023-04-24T10:25:22;5.80;76.30
39655;DHT22;25336;59.944;11.010;2023-04-24T10:27:49;5.80;76.70
39655;DHT22;25336;59.944;11.010;2023-04-24T10:30:15;5.70;76.80
39655;DHT22;25336;59.944;11.010;2023-04-24T10:32:41;5.70;76.30
39655;DHT22;25336;59.944;11.010;2023-04-24T10:35:08;6.50;77.10
39655;DHT22;25336;59.944;11.010;2023-04-24T10:37:45;5.70;76.70
39655;DHT22;25336;59.944;11.010;2023-04-24T10:40:16;5.70;76.60
39655;DHT22;25336;59.944;11.010;2023-04-24T10:42:42;5.70;76.60
39655;DHT22;25336;59.944;11.010;2023-04-24T10:45:19;5.70;76.00
39655;DHT22;25336;59.944;11.010;2023-04-24T10:50:18;5.80;76.90
39655;DHT22;25336;59.944;11.010;2023-04-24T10:52:48;5.70;76.90
39655;DHT22;25336;59.944;11.010;2023-04-24T10:55:16;5.80;76.90
39655;DHT22;25336;59.944;11.010;2023-04-24T10:58:02;5.80;77.10
39655;DHT22;25336;59.944;11.010;2023-04-24T11:00:29;5.80;77.60
39655;DHT22;25336;59.944;11.010;2023-04-24T11:02:54;5.80;77.10
39655;DHT22;25336;59.944;11.010;2023-04-24T11:05:21;6.50;77.30
39655;DHT22;25336;59.944;11.010;2023-04-24T11:08:15;5.80;76.70
39655;DHT22;25336;59.944;11.010;2023-04-24T11:11:13;5.80;76.80
39655;DHT22;25336;59.944;11.010;2023-04-24T11:16:26;5.80;76.70
39655;DHT22;25336;59.944;11.010;2023-04-24T11:18:59;6.40;77.00
39655;DHT22;25336;59.944;11.010;2023-04-24T11:21:27;5.80;76.50
39655;DHT22;25336;59.944;11.010;2023-04-24T11:23:57;5.80;76.70
39655;DHT22;25336;59.944;11.010;2023-04-24T11:26:23;5.80;77.00
39655;DHT22;25336;59.944;11.010;2023-04-24T11:29:06;5.80;76.40
39655;DHT22;25336;59.944;11.010;2023-04-24T11:31:39;5.80;76.70
39655;DHT22;25336;59.944;11.010;2023-04-24T11:34:11;5.80;76.50
39655;DHT22;25336;59.944;11.010;2023-04-24T11:36:38;5.80;76.80
39655;DHT22;25336;59.944;11.010;2023-04-24T11:39:04;5.80;76.90
39655;DHT22;25336;59.944;11.010;2023-04-24T11:41:31;5.80;77.00
39655;DHT22;25336;59.944;11.010;2023-04-24T11:43:57;5.70;77.10
39655;DHT22;25336;59.944;11.010;2023-04-24T11:46:23;5.80;77.20
39655;DHT22;25336;59.944;11.010;2023-04-24T11:48:51;6.30;77.20
39655;DHT22;25336;59.944;11.010;2023-04-24T11:51:17;6.30;77.20
39655;DHT22;25336;59.944;11.010;2023-04-24T11:53:43;5.80;76.70
39655;DHT22;25336;59.944;11.010;2023-04-24T11:56:09;5.80;76.90
39655;DHT22;25336;59.944;11.010;2023-04-24T11:58:35;5.80;76.80
39655;DHT22;25336;59.944;11.010;2023-04-24T12:01:01;5.80;76.80
39655;DHT22;25336;59.944;11.010;2023-04-24T12:03:27;5.80;77.00
39655;DHT22;25336;59.944;11.010;2023-04-24T12:05:53;5.80;76.80
39655;DHT22;25336;59.944;11.010;2023-04-24T12:08:29;5.80;76.80
39655;DHT22;25336;59.944;11.010;2023-04-24T12:10:55;5.80;77.20
39655;DHT22;25336;59.944;11.010;2023-04-24T12:13:21;6.00;77.20
39655;DHT22;25336;59.944;11.010;2023-04-24T12:15:47;5.80;77.50
39655;DHT22;25336;59.944;11.010;2023-04-24T12:18:13;5.70;77.30
39655;DHT22;25336;59.944;11.010;2023-04-24T12:20:40;6.30;77.60
39655;DHT22;25336;59.944;11.010;2023-04-24T12:23:06;6.50;77.90
39655;DHT22;25336;59.944;11.010;2023-04-24T12:25:32;5.70;77.20
39655;DHT22;25336;59.944;11.010;2023-04-24T12:30:33;5.80;77.50
39655;DHT22;25336;59.944;11.010;2023-04-24T12:32:59;5.80;77.80
39655;DHT22;25336;59.944;11.010;2023-04-24T12:35:28;6.00;77.20
39655;DHT22;25336;59.944;11.010;2023-04-24T12:37:54;5.80;77.30
39655;DHT22;25336;59.944;11.010;2023-04-24T12:40:21;5.80;77.10
39655;DHT22;25336;59.944;11.010;2023-04-24T12:42:49;5.90;77.00
39655;DHT22;25336;59.944;11.010;2023-04-24T12:45:16;6.70;78.00
39655;DHT22;25336;59.944;11.010;2023-04-24T12:47:43;6.80;77.90
39655;DHT22;25336;59.944;11.010;2023-04-24T12:50:10;5.80;77.10
39655;DHT22;25336;59.944;11.010;2023-04-24T12:52:37;5.80;76.90
39655;DHT22;25336;59.944;11.010;2023-04-24T12:55:03;5.80;76.60
39655;DHT22;25336;59.944;11.010;2023-04-24T12:57:30;5.80;76.80
39655;DHT22;25336;59.944;11.010;2023-04-24T12:59:57;5.80;76.70
39655;DHT22;25336;59.944;11.010;2023-04-24T13:02:24;5.80;76.90
39655;DHT22;25336;59.944;11.010;2023-04-24T13:04:51;5.80;76.80
39655;DHT22;25336;59.944;11.010;2023-04-24T13:07:17;5.80;76.50
39655;DHT22;25336;59.944;11.010;2023-04-24T13:09:43;5.00;76.10
39655;DHT22;25336;59.944;11.010;2023-04-24T13:12:10;5.80;76.60
39655;DHT22;25336;59.944;11.010;2023-04-24T13:14:36;5.80;76.70
39655;DHT22;25336;59.944;11.010;2023-04-24T13:17:02;5.80;76.50
39655;DHT22;25336;59.944;11.010;2023-04-24T13:19:28;6.80;77.30
39655;DHT22;25336;59.944;11.010;2023-04-24T13:21:56;6.40;76.90
39655;DHT22;25336;59.944;11.010;2023-04-24T13:24:23;6.80;77.40
39655;DHT22;25336;59.944;11.010;2023-04-24T13:26:52;5.80;76.70
39655;DHT22;25336;59.944;11.010;2023-04-24T13:29:18;6.40;76.80
39655;DHT22;25336;59.944;11.010;2023-04-24T13:31:43;6.70;76.90
39655;DHT22;25336;59.944;11.010;2023-04-24T13:34:09;5.70;76.40
39655;DHT22;25336;59.944;11.010;2023-04-24T13:36:35;5.70;76.70
39655;DHT22;25336;59.944;11.010;2023-04-24T13:39:02;5.70;76.60
39655;DHT22;25336;59.944;11.010;2023-04-24T13:41:30;5.70;76.50
39655;DHT22;25336;59.944;11.010;2023-04-24T13:43:55;5.70;76.30
39655;DHT22;25336;59.944;11.010;2023-04-24T13:46:21;5.60;76.50
39655;DHT22;25336;59.944;11.010;2023-04-24T13:48:47;5.60;76.40
39655;DHT22;25336;59.944;11.010;2023-04-24T13:51:12;5.60;76.40
39655;DHT22;25336;59.944;11.010;2023-04-24T13:53:38;5.60;76.00
39655;DHT22;25336;59.944;11.010;2023-04-24T13:56:04;6.20;76.60
39655;DHT22;25336;59.944;11.010;2023-04-24T13:58:31;5.50;76.40
39655;DHT22;25336;59.944;11.010;2023-04-24T14:00:57;5.50;76.40
39655;DHT22;25336;59.944;11.010;2023-04-24T14:03:23;5.50;76.40
39655;DHT22;25336;59.944;11.010;2023-04-24T14:05:49;5.50;76.80
39655;DHT22;25336;59.944;11.010;2023-04-24T14:08:14;5.40;76.50
39655;DHT22;25336;59.944;11.010;2023-04-24T14:10:40;5.60;76.40
39655;DHT22;25336;59.944;11.010;2023-04-24T14:13:05;5.40;76.40
39655;DHT22;25336;59.944;11.010;2023-04-24T14:15:31;6.40;77.40
39655;DHT22;25336;59.944;11.010;2023-04-24T14:17:57;6.20;76.80
39655;DHT22;25336;59.944;11.010;2023-04-24T14:20:23;5.40;76.40
39655;DHT22;25336;59.944;11.010;2023-04-24T14:22:48;6.00;77.00
39655;DHT22;25336;59.944;11.010;2023-04-24T14:25:14;5.30;76.70
39655;DHT22;25336;59.944;11.010;2023-04-24T14:27:40;6.40;77.20
39655;DHT22;25336;59.944;11.010;2023-04-24T14:30:07;5.30;76.50
39655;DHT22;25336;59.944;11.010;2023-04-24T14:32:32;5.30;76.50
39655;DHT22;25336;59.944;11.010;2023-04-24T14:34:58;5.30;76.70
39655;DHT22;25336;59.944;11.010;2023-04-24T14:37:24;5.30;76.50
39655;DHT22;25336;59.944;11.010;2023-04-24T14:39:49;5.30;76.50
39655;DHT22;25336;59.944;11.010;2023-04-24T14:42:15;6.40;77.20
39655;DHT22;25336;59.944;11.010;2023-04-24T14:44:42;6.00;76.80
39655;DHT22;25336;59.944;11.010;2023-04-24T14:47:08;5.20;76.50
39655;DHT22;25336;59.944;11.010;2023-04-24T14:49:33;5.20;76.50
39655;DHT22;25336;59.944;11.010;2023-04-24T14:51:59;6.10;76.90
39655;DHT22;25336;59.944;11.010;2023-04-24T14:54:25;5.20;76.30
39655;DHT22;25336;59.944;11.010;2023-04-24T14:56:51;5.20;76.30
39655;DHT22;25336;59.944;11.010;2023-04-24T14:59:16;5.10;76.30
39655;DHT22;25336;59.944;11.010;2023-04-24T15:01:42;5.10;76.70
39655;DHT22;25336;59.944;11.010;2023-04-24T15:04:08;5.60;77.10
39655;DHT22;25336;59.944;11.010;2023-04-24T15:06:33;5.10;76.90
39655;DHT22;25336;59.944;11.010;2023-04-24T15:08:59;5.10;76.90
39655;DHT22;25336;59.944;11.010;2023-04-24T15:11:25;5.10;76.80
39655;DHT22;25336;59.944;11.010;2023-04-24T15:13:50;5.10;76.80
39655;DHT22;25336;59.944;11.010;2023-04-24T15:16:16;5.10;76.80
39655;DHT22;25336;59.944;11.010;2023-04-24T15:18:42;5.60;77.10
39655;DHT22;25336;59.944;11.010;2023-04-24T15:21:07;5.50;77.40
39655;DHT22;25336;59.944;11.010;2023-04-24T15:23:33;5.00;76.80
39655;DHT22;25336;59.944;11.010;2023-04-24T15:25:59;6.00;77.50
39655;DHT22;25336;59.944;11.010;2023-04-24T15:28:25;5.80;77.60
39655;DHT22;25336;59.944;11.010;2023-04-24T15:30:50;5.00;76.80
39655;DHT22;25336;59.944;11.010;2023-04-24T15:33:16;4.90;77.00